sensor_id;sensor_type;location;lat;lon;timestamp;pressure;altitude;pressure_sealevel;temperature;humidity
9439;BME280;5176;42.622;25.386;2024-01-27T00:02:10;97606.06;;;5.16;56.47
9439;BME280;5176;42.622;25.386;2024-01-27T00:04:37;97613.03;;;5.14;57.05
9439;BME280;5176;42.622;25.386;2024-01-27T00:07:05;97610.56;;;5.11;57.25
9439;BME280;5176;42.622;25.386;2024-01-27T00:09:32;97624.53;;;5.08;57.74
9439;BME280;5176;42.622;25.386;2024-01-27T00:11:59;97628.00;;;5.07;58.14
9439;BME280;5176;42.622;25.386;2024-01-27T00:14:28;97623.84;;;5.03;58.19
9439;BME280;5176;42.622;25.386;2024-01-27T00:16:56;97631.50;;;5.06;58.34
9439;BME280;5176;42.622;25.386;2024-01-27T00:19:23;97629.97;;;5.01;57.75
9439;BME280;5176;42.622;25.386;2024-01-27T00:21:50;97632.91;;;4.91;57.62
9439;BME280;5176;42.622;25.386;2024-01-27T00:24:18;97635.91;;;4.79;57.62
9439;BME280;5176;42.622;25.386;2024-01-27T00:26:45;97630.09;;;4.73;58.09
9439;BME280;5176;42.622;25.386;2024-01-27T00:29:13;97614.72;;;4.67;58.06
9439;BME280;5176;42.622;25.386;2024-01-27T00:31:41;97621.72;;;4.64;57.94
9439;BME280;5176;42.622;25.386;2024-01-27T00:34:09;97624.47;;;4.60;58.49
9439;BME280;5176;42.622;25.386;2024-01-27T00:36:36;97628.91;;;4.56;58.52
9439;BME280;5176;42.622;25.386;2024-01-27T00:39:04;97630.22;;;4.43;59.29
9439;BME280;5176;42.622;25.386;2024-01-27T00:41:31;97628.53;;;4.42;59.77
9439;BME280;5176;42.622;25.386;2024-01-27T00:43:58;97620.09;;;4.35;60.06
9439;BME280;5176;42.622;25.386;2024-01-27T00:46:26;97615.56;;;4.42;59.58
9439;BME280;5176;42.622;25.386;2024-01-27T00:48:55;97625.09;;;4.42;59.62
9439;BME280;5176;42.622;25.386;2024-01-27T00:51:22;97614.75;;;4.40;60.14
9439;BME280;5176;42.622;25.386;2024-01-27T00:53:49;97601.31;;;4.27;59.50
9439;BME280;5176;42.622;25.386;2024-01-27T00:56:17;97598.78;;;4.26;60.13
9439;BME280;5176;42.622;25.386;2024-01-27T00:58:45;97592.22;;;4.16;60.59
9439;BME280;5176;42.622;25.386;2024-01-27T01:01:12;97585.28;;;4.16;60.71
9439;BME280;5176;42.622;25.386;2024-01-27T01:03:39;97587.22;;;4.09;60.30
9439;BME280;5176;42.622;25.386;2024-01-27T01:06:08;97584.88;;;4.02;60.88
9439;BME280;5176;42.622;25.386;2024-01-27T01:08:35;97577.47;;;3.90;61.85
9439;BME280;5176;42.622;25.386;2024-01-27T01:11:03;97586.19;;;3.87;61.96
9439;BME280;5176;42.622;25.386;2024-01-27T01:13:31;97583.88;;;3.78;61.90
9439;BME280;5176;42.622;25.386;2024-01-27T01:15:58;97580.44;;;3.77;62.00
9439;BME280;5176;42.622;25.386;2024-01-27T01:18:25;97576.31;;;3.72;61.85
9439;BME280;5176;42.622;25.386;2024-01-27T01:20:53;97582.56;;;3.65;61.81
9439;BME280;5176;42.622;25.386;2024-01-27T01:23:22;97574.91;;;3.62;62.26
9439;BME280;5176;42.622;25.386;2024-01-27T01:25:49;97570.75;;;3.56;62.73
9439;BME280;5176;42.622;25.386;2024-01-27T01:28:16;97572.38;;;3.59;62.78
9439;BME280;5176;42.622;25.386;2024-01-27T01:30:44;97561.50;;;3.47;62.96
9439;BME280;5176;42.622;25.386;2024-01-27T01:33:11;97561.34;;;3.52;63.27
9439;BME280;5176;42.622;25.386;2024-01-27T01:35:39;97566.50;;;3.53;63.43
9439;BME280;5176;42.622;25.386;2024-01-27T01:38:06;97563.09;;;3.51;64.05
9439;BME280;5176;42.622;25.386;2024-01-27T01:40:35;97576.66;;;3.60;63.75
9439;BME280;5176;42.622;25.386;2024-01-27T01:43:02;97564.72;;;3.55;63.41
9439;BME280;5176;42.622;25.386;2024-01-27T01:45:30;97553.63;;;3.50;63.40
9439;BME280;5176;42.622;25.386;2024-01-27T01:47:58;97554.53;;;3.49;63.07
9439;BME280;5176;42.622;25.386;2024-01-27T01:50:25;97562.38;;;3.48;63.20
9439;BME280;5176;42.622;25.386;2024-01-27T01:52:53;97542.19;;;3.30;63.24
9439;BME280;5176;42.622;25.386;2024-01-27T01:55:21;97550.56;;;3.38;64.13
9439;BME280;5176;42.622;25.386;2024-01-27T01:57:50;97541.41;;;3.26;63.63
9439;BME280;5176;42.622;25.386;2024-01-27T02:00:19;97548.38;;;3.24;64.37
9439;BME280;5176;42.622;25.386;2024-01-27T02:02:47;97536.38;;;3.21;64.49
9439;BME280;5176;42.622;25.386;2024-01-27T02:05:15;97541.41;;;3.26;64.65
9439;BME280;5176;42.622;25.386;2024-01-27T02:07:42;97544.81;;;3.28;65.07
9439;BME280;5176;42.622;25.386;2024-01-27T02:10:13;97550.88;;;3.27;65.01
9439;BME280;5176;42.622;25.386;2024-01-27T02:12:41;97536.34;;;3.23;64.65
9439;BME280;5176;42.622;25.386;2024-01-27T02:15:11;97536.69;;;3.11;64.92
9439;BME280;5176;42.622;25.386;2024-01-27T02:17:40;97521.19;;;3.09;65.46
9439;BME280;5176;42.622;25.386;2024-01-27T02:20:08;97519.59;;;3.05;65.72
9439;BME280;5176;42.622;25.386;2024-01-27T02:22:35;97524.03;;;3.00;66.23
9439;BME280;5176;42.622;25.386;2024-01-27T02:25:05;97535.34;;;2.97;66.80
9439;BME280;5176;42.622;25.386;2024-01-27T02:27:31;97537.94;;;2.97;67.27
9439;BME280;5176;42.622;25.386;2024-01-27T02:29:59;97544.00;;;2.96;67.23
9439;BME280;5176;42.622;25.386;2024-01-27T02:32:26;97544.13;;;2.92;67.28
9439;BME280;5176;42.622;25.386;2024-01-27T02:34:54;97534.22;;;2.77;67.42
9439;BME280;5176;42.622;25.386;2024-01-27T02:37:21;97556.34;;;2.88;68.02
9439;BME280;5176;42.622;25.386;2024-01-27T02:39:49;97551.09;;;2.90;67.81
9439;BME280;5176;42.622;25.386;2024-01-27T02:42:17;97550.09;;;2.95;67.90
9439;BME280;5176;42.622;25.386;2024-01-27T02:44:45;97547.34;;;3.00;67.99
9439;BME280;5176;42.622;25.386;2024-01-27T02:47:12;97551.63;;;3.03;67.76
9439;BME280;5176;42.622;25.386;2024-01-27T02:49:39;97551.44;;;3.09;67.81
9439;BME280;5176;42.622;25.386;2024-01-27T02:52:08;97543.63;;;3.10;67.71
9439;BME280;5176;42.622;25.386;2024-01-27T02:54:36;97544.34;;;3.14;67.54
9439;BME280;5176;42.622;25.386;2024-01-27T02:57:03;97534.66;;;3.20;67.42
9439;BME280;5176;42.622;25.386;2024-01-27T02:59:32;97536.41;;;3.20;66.80
9439;BME280;5176;42.622;25.386;2024-01-27T03:02:00;97547.63;;;3.20;66.52
9439;BME280;5176;42.622;25.386;2024-01-27T03:04:27;97532.41;;;3.10;67.17
9439;BME280;5176;42.622;25.386;2024-01-27T03:06:54;97543.34;;;3.19;66.96
9439;BME280;5176;42.622;25.386;2024-01-27T03:09:22;97546.03;;;3.16;67.20
9439;BME280;5176;42.622;25.386;2024-01-27T03:11:49;97544.47;;;3.11;67.72
9439;BME280;5176;42.622;25.386;2024-01-27T03:14:17;97538.47;;;3.09;67.16
9439;BME280;5176;42.622;25.386;2024-01-27T03:16:45;97535.06;;;3.08;67.63
9439;BME280;5176;42.622;25.386;2024-01-27T03:19:13;97528.88;;;3.12;67.73
9439;BME280;5176;42.622;25.386;2024-01-27T03:21:40;97538.59;;;3.04;67.32
9439;BME280;5176;42.622;25.386;2024-01-27T03:24:07;97544.88;;;2.97;67.59
9439;BME280;5176;42.622;25.386;2024-01-27T03:26:35;97536.41;;;2.90;68.53
9439;BME280;5176;42.622;25.386;2024-01-27T03:29:02;97529.63;;;2.86;69.08
9439;BME280;5176;42.622;25.386;2024-01-27T03:31:30;97519.31;;;2.85;68.34
9439;BME280;5176;42.622;25.386;2024-01-27T03:34:00;97504.63;;;2.85;68.98
9439;BME280;5176;42.622;25.386;2024-01-27T03:36:28;97465.56;;;2.63;68.96
9439;BME280;5176;42.622;25.386;2024-01-27T03:38:56;97489.38;;;2.76;69.32
9439;BME280;5176;42.622;25.386;2024-01-27T03:41:24;97480.78;;;2.74;70.12
9439;BME280;5176;42.622;25.386;2024-01-27T03:43:51;97490.22;;;2.77;69.95
9439;BME280;5176;42.622;25.386;2024-01-27T03:46:19;97498.72;;;2.80;70.11
9439;BME280;5176;42.622;25.386;2024-01-27T03:48:46;97497.97;;;2.77;69.95
9439;BME280;5176;42.622;25.386;2024-01-27T03:51:15;97513.09;;;2.61;70.64
9439;BME280;5176;42.622;25.386;2024-01-27T03:53:42;97508.97;;;2.54;71.60
9439;BME280;5176;42.622;25.386;2024-01-27T03:56:11;97520.38;;;2.46;71.96
9439;BME280;5176;42.622;25.386;2024-01-27T03:58:39;97511.22;;;2.35;73.15
9439;BME280;5176;42.622;25.386;2024-01-27T04:01:06;97513.34;;;2.19;73.56
9439;BME280;5176;42.622;25.386;2024-01-27T04:03:34;97525.38;;;2.20;73.75
9439;BME280;5176;42.622;25.386;2024-01-27T04:06:01;97513.53;;;2.11;74.28
9439;BME280;5176;42.622;25.386;2024-01-27T04:08:31;97506.47;;;2.18;74.26
9439;BME280;5176;42.622;25.386;2024-01-27T04:10:58;97502.88;;;2.24;74.23
9439;BME280;5176;42.622;25.386;2024-01-27T04:13:25;97493.38;;;2.24;74.06
9439;BME280;5176;42.622;25.386;2024-01-27T04:15:53;97495.75;;;2.32;74.62
9439;BME280;5176;42.622;25.386;2024-01-27T04:18:21;97502.19;;;2.17;74.23
9439;BME280;5176;42.622;25.386;2024-01-27T04:20:48;97495.28;;;2.17;74.33
9439;BME280;5176;42.622;25.386;2024-01-27T04:23:15;97501.09;;;2.26;74.36
9439;BME280;5176;42.622;25.386;2024-01-27T04:25:44;97486.53;;;2.23;74.41
9439;BME280;5176;42.622;25.386;2024-01-27T04:28:11;97478.94;;;2.17;74.66
9439;BME280;5176;42.622;25.386;2024-01-27T04:30:39;97473.81;;;2.15;75.13
9439;BME280;5176;42.622;25.386;2024-01-27T04:33:06;97466.25;;;2.06;74.10
9439;BME280;5176;42.622;25.386;2024-01-27T04:35:34;97479.19;;;2.08;74.90
9439;BME280;5176;42.622;25.386;2024-01-27T04:38:01;97472.22;;;2.10;75.16
9439;BME280;5176;42.622;25.386;2024-01-27T04:40:29;97452.69;;;1.98;75.40
9439;BME280;5176;42.622;25.386;2024-01-27T04:42:58;97464.47;;;2.10;75.17
9439;BME280;5176;42.622;25.386;2024-01-27T04:45:25;97464.53;;;2.07;75.70
9439;BME280;5176;42.622;25.386;2024-01-27T04:47:53;97466.94;;;2.14;75.81
9439;BME280;5176;42.622;25.386;2024-01-27T04:50:21;97481.47;;;2.18;75.81
9439;BME280;5176;42.622;25.386;2024-01-27T04:52:48;97467.56;;;2.23;75.83
9439;BME280;5176;42.622;25.386;2024-01-27T04:55:16;97457.22;;;2.23;75.31
9439;BME280;5176;42.622;25.386;2024-01-27T04:57:43;97460.09;;;2.12;75.76
9439;BME280;5176;42.622;25.386;2024-01-27T05:00:15;97461.03;;;2.09;76.34
9439;BME280;5176;42.622;25.386;2024-01-27T05:02:42;97457.50;;;2.12;76.62
9439;BME280;5176;42.622;25.386;2024-01-27T05:05:10;97454.81;;;2.16;77.10
9439;BME280;5176;42.622;25.386;2024-01-27T05:07:37;97463.06;;;2.29;76.58
9439;BME280;5176;42.622;25.386;2024-01-27T05:10:06;97475.00;;;2.35;76.34
9439;BME280;5176;42.622;25.386;2024-01-27T05:12:34;97487.09;;;2.34;75.88
9439;BME280;5176;42.622;25.386;2024-01-27T05:15:01;97487.94;;;2.33;75.18
9439;BME280;5176;42.622;25.386;2024-01-27T05:17:30;97475.03;;;2.33;75.59
9439;BME280;5176;42.622;25.386;2024-01-27T05:19:58;97477.91;;;2.23;76.25
9439;BME280;5176;42.622;25.386;2024-01-27T05:22:25;97492.28;;;2.33;76.50
9439;BME280;5176;42.622;25.386;2024-01-27T05:24:52;97489.47;;;2.40;76.58
9439;BME280;5176;42.622;25.386;2024-01-27T05:27:20;97496.44;;;2.38;75.89
9439;BME280;5176;42.622;25.386;2024-01-27T05:29:47;97487.88;;;2.36;75.47
9439;BME280;5176;42.622;25.386;2024-01-27T05:32:15;97484.19;;;2.45;76.27
9439;BME280;5176;42.622;25.386;2024-01-27T05:34:44;97479.75;;;2.50;75.66
9439;BME280;5176;42.622;25.386;2024-01-27T05:37:11;97477.84;;;2.57;74.79
9439;BME280;5176;42.622;25.386;2024-01-27T05:39:39;97487.25;;;2.59;74.17
9439;BME280;5176;42.622;25.386;2024-01-27T05:42:06;97489.03;;;2.57;74.79
9439;BME280;5176;42.622;25.386;2024-01-27T05:44:34;97500.28;;;2.56;75.04
9439;BME280;5176;42.622;25.386;2024-01-27T05:47:01;97489.25;;;2.50;75.17
9439;BME280;5176;42.622;25.386;2024-01-27T05:49:29;97491.84;;;2.50;75.31
9439;BME280;5176;42.622;25.386;2024-01-27T05:51:57;97490.81;;;2.55;75.27
9439;BME280;5176;42.622;25.386;2024-01-27T05:54:25;97487.16;;;2.62;74.39
9439;BME280;5176;42.622;25.386;2024-01-27T05:56:52;97484.81;;;2.55;74.25
9439;BME280;5176;42.622;25.386;2024-01-27T05:59:19;97506.09;;;2.64;74.30
9439;BME280;5176;42.622;25.386;2024-01-27T06:01:47;97511.38;;;2.60;74.91
9439;BME280;5176;42.622;25.386;2024-01-27T06:04:14;97493.63;;;2.48;75.22
9439;BME280;5176;42.622;25.386;2024-01-27T06:06:41;97497.81;;;2.52;77.02
9439;BME280;5176;42.622;25.386;2024-01-27T06:09:10;97497.63;;;2.58;77.55
9439;BME280;5176;42.622;25.386;2024-01-27T06:11:39;97487.56;;;2.47;76.82
9439;BME280;5176;42.622;25.386;2024-01-27T06:14:07;97490.94;;;2.51;77.38
9439;BME280;5176;42.622;25.386;2024-01-27T06:16:34;97494.44;;;2.50;77.63
9439;BME280;5176;42.622;25.386;2024-01-27T06:19:02;97490.84;;;2.54;77.87
9439;BME280;5176;42.622;25.386;2024-01-27T06:21:29;97488.25;;;2.54;78.33
9439;BME280;5176;42.622;25.386;2024-01-27T06:23:56;97482.78;;;2.64;78.79
9439;BME280;5176;42.622;25.386;2024-01-27T06:26:25;97476.47;;;2.75;77.75
9439;BME280;5176;42.622;25.386;2024-01-27T06:28:52;97468.59;;;2.78;76.77
9439;BME280;5176;42.622;25.386;2024-01-27T06:31:20;97483.13;;;2.83;76.79
9439;BME280;5176;42.622;25.386;2024-01-27T06:33:47;97483.56;;;2.97;76.38
9439;BME280;5176;42.622;25.386;2024-01-27T06:36:14;97476.63;;;2.98;75.46
9439;BME280;5176;42.622;25.386;2024-01-27T06:38:42;97467.06;;;3.00;75.21
9439;BME280;5176;42.622;25.386;2024-01-27T06:41:10;97467.25;;;2.94;74.94
9439;BME280;5176;42.622;25.386;2024-01-27T06:43:39;97457.56;;;3.00;74.83
9439;BME280;5176;42.622;25.386;2024-01-27T06:46:06;97476.44;;;3.04;74.81
9439;BME280;5176;42.622;25.386;2024-01-27T06:48:33;97459.94;;;3.08;75.53
9439;BME280;5176;42.622;25.386;2024-01-27T06:51:01;97467.53;;;3.13;75.56
9439;BME280;5176;42.622;25.386;2024-01-27T06:53:28;97470.66;;;3.24;76.98
9439;BME280;5176;42.622;25.386;2024-01-27T06:55:55;97454.13;;;3.28;76.78
9439;BME280;5176;42.622;25.386;2024-01-27T06:58:23;97479.16;;;3.29;76.71
9439;BME280;5176;42.622;25.386;2024-01-27T07:00:52;97469.56;;;3.31;76.36
9439;BME280;5176;42.622;25.386;2024-01-27T07:03:19;97472.06;;;3.34;76.88
9439;BME280;5176;42.622;25.386;2024-01-27T07:05:47;97472.78;;;3.39;76.61
9439;BME280;5176;42.622;25.386;2024-01-27T07:08:14;97382.69;;;2.93;76.36
9439;BME280;5176;42.622;25.386;2024-01-27T07:10:42;97464.00;;;3.43;76.58
9439;BME280;5176;42.622;25.386;2024-01-27T07:13:09;97462.22;;;3.45;77.00
9439;BME280;5176;42.622;25.386;2024-01-27T07:15:37;97473.34;;;3.49;78.00
9439;BME280;5176;42.622;25.386;2024-01-27T07:18:06;97458.63;;;3.49;78.47
9439;BME280;5176;42.622;25.386;2024-01-27T07:20:34;97457.63;;;3.53;78.04
9439;BME280;5176;42.622;25.386;2024-01-27T07:23:02;97461.94;;;3.54;77.90
9439;BME280;5176;42.622;25.386;2024-01-27T07:25:29;97442.88;;;3.55;78.87
9439;BME280;5176;42.622;25.386;2024-01-27T07:27:57;97455.66;;;3.62;80.03
9439;BME280;5176;42.622;25.386;2024-01-27T07:30:24;97451.41;;;3.59;81.06
9439;BME280;5176;42.622;25.386;2024-01-27T07:32:52;97428.91;;;3.60;83.03
9439;BME280;5176;42.622;25.386;2024-01-27T07:35:20;97441.72;;;3.64;84.31
9439;BME280;5176;42.622;25.386;2024-01-27T07:37:48;97443.38;;;3.67;83.50
9439;BME280;5176;42.622;25.386;2024-01-27T07:40:15;97443.69;;;3.58;85.64
9439;BME280;5176;42.622;25.386;2024-01-27T07:42:43;97440.22;;;3.31;88.59
9439;BME280;5176;42.622;25.386;2024-01-27T07:45:10;97406.28;;;2.84;92.65
9439;BME280;5176;42.622;25.386;2024-01-27T07:47:38;97438.59;;;3.00;95.65
9439;BME280;5176;42.622;25.386;2024-01-27T07:50:06;97445.25;;;3.07;97.70
9439;BME280;5176;42.622;25.386;2024-01-27T07:52:36;97465.13;;;3.08;98.29
9439;BME280;5176;42.622;25.386;2024-01-27T07:55:04;97457.28;;;3.10;98.38
9439;BME280;5176;42.622;25.386;2024-01-27T07:57:32;97451.09;;;3.15;98.58
9439;BME280;5176;42.622;25.386;2024-01-27T07:59:59;97462.72;;;3.00;99.62
9439;BME280;5176;42.622;25.386;2024-01-27T08:02:27;97454.34;;;2.92;100.00
9439;BME280;5176;42.622;25.386;2024-01-27T08:04:54;97457.78;;;2.93;100.00
9439;BME280;5176;42.622;25.386;2024-01-27T08:07:21;97455.19;;;2.93;100.00
9439;BME280;5176;42.622;25.386;2024-01-27T08:09:50;97464.66;;;2.94;100.00
9439;BME280;5176;42.622;25.386;2024-01-27T08:12:18;97476.06;;;2.88;100.00
9439;BME280;5176;42.622;25.386;2024-01-27T08:14:45;97475.47;;;2.79;100.00
9439;BME280;5176;42.622;25.386;2024-01-27T08:17:13;97478.78;;;2.84;100.00
9439;BME280;5176;42.622;25.386;2024-01-27T08:19:41;97476.88;;;2.90;100.00
9439;BME280;5176;42.622;25.386;2024-01-27T08:22:08;97458.19;;;2.79;100.00
9439;BME280;5176;42.622;25.386;2024-01-27T08:24:36;97467.00;;;2.73;100.00
9439;BME280;5176;42.622;25.386;2024-01-27T08:27:05;97463.53;;;2.75;100.00
9439;BME280;5176;42.622;25.386;2024-01-27T08:29:32;97484.75;;;2.86;100.00
9439;BME280;5176;42.622;25.386;2024-01-27T08:31:59;97471.81;;;2.86;100.00
9439;BME280;5176;42.622;25.386;2024-01-27T08:34:26;97470.91;;;2.87;100.00
9439;BME280;5176;42.622;25.386;2024-01-27T08:36:53;97461.97;;;2.69;100.00
9439;BME280;5176;42.622;25.386;2024-01-27T08:39:24;97477.16;;;2.81;100.00
9439;BME280;5176;42.622;25.386;2024-01-27T08:41:51;97459.47;;;2.94;100.00
9439;BME280;5176;42.622;25.386;2024-01-27T08:44:20;97431.75;;;2.97;100.00
9439;BME280;5176;42.622;25.386;2024-01-27T08:46:48;97420.19;;;2.81;100.00
9439;BME280;5176;42.622;25.386;2024-01-27T08:49:16;97445.97;;;2.84;100.00
9439;BME280;5176;42.622;25.386;2024-01-27T08:51:43;97433.91;;;2.83;100.00
9439;BME280;5176;42.622;25.386;2024-01-27T08:54:11;97407.66;;;2.95;100.00
9439;BME280;5176;42.622;25.386;2024-01-27T08:56:40;97422.16;;;3.01;100.00
9439;BME280;5176;42.622;25.386;2024-01-27T08:59:07;97418.25;;;3.16;100.00
9439;BME280;5176;42.622;25.386;2024-01-27T09:01:36;97404.91;;;3.28;100.00
9439;BME280;5176;42.622;25.386;2024-01-27T09:04:04;97420.34;;;3.31;100.00
9439;BME280;5176;42.622;25.386;2024-01-27T09:06:32;97447.31;;;3.52;100.00
9439;BME280;5176;42.622;25.386;2024-01-27T09:08:59;97455.75;;;3.59;100.00
9439;BME280;5176;42.622;25.386;2024-01-27T09:11:26;97462.34;;;3.69;100.00
9439;BME280;5176;42.622;25.386;2024-01-27T09:13:56;97461.16;;;3.77;100.00
9439;BME280;5176;42.622;25.386;2024-01-27T09:16:23;97457.47;;;3.85;100.00
9439;BME280;5176;42.622;25.386;2024-01-27T09:18:52;97451.25;;;3.90;100.00
9439;BME280;5176;42.622;25.386;2024-01-27T09:21:20;97461.50;;;3.93;100.00
9439;BME280;5176;42.622;25.386;2024-01-27T09:23:53;97473.28;;;4.03;100.00
9439;BME280;5176;42.622;25.386;2024-01-27T09:26:22;97471.16;;;4.15;100.00
9439;BME280;5176;42.622;25.386;2024-01-27T09:28:48;97465.91;;;4.16;100.00
9439;BME280;5176;42.622;25.386;2024-01-27T09:31:20;97443.56;;;4.12;100.00
9439;BME280;5176;42.622;25.386;2024-01-27T09:33:49;97436.06;;;4.28;100.00
9439;BME280;5176;42.622;25.386;2024-01-27T09:36:19;97431.69;;;4.30;100.00
9439;BME280;5176;42.622;25.386;2024-01-27T09:38:47;97431.63;;;4.31;100.00
9439;BME280;5176;42.622;25.386;2024-01-27T09:41:15;97423.97;;;4.28;100.00
9439;BME280;5176;42.622;25.386;2024-01-27T09:43:43;97420.97;;;4.39;100.00
9439;BME280;5176;42.622;25.386;2024-01-27T09:46:11;97409.91;;;4.34;100.00
9439;BME280;5176;42.622;25.386;2024-01-27T09:48:39;97420.13;;;4.38;100.00
9439;BME280;5176;42.622;25.386;2024-01-27T09:51:08;97410.31;;;4.23;100.00
9439;BME280;5176;42.622;25.386;2024-01-27T09:53:37;97404.94;;;4.28;100.00
9439;BME280;5176;42.622;25.386;2024-01-27T09:56:06;97413.25;;;4.37;100.00
9439;BME280;5176;42.622;25.386;2024-01-27T09:58:34;97410.53;;;4.41;100.00
9439;BME280;5176;42.622;25.386;2024-01-27T10:01:02;97404.47;;;4.42;100.00
9439;BME280;5176;42.622;25.386;2024-01-27T10:03:31;97396.38;;;4.49;100.00
9439;BME280;5176;42.622;25.386;2024-01-27T10:06:00;97407.44;;;4.54;100.00
9439;BME280;5176;42.622;25.386;2024-01-27T10:08:28;97391.84;;;4.54;100.00
9439;BME280;5176;42.622;25.386;2024-01-27T10:10:57;97405.34;;;4.64;100.00
9439;BME280;5176;42.622;25.386;2024-01-27T10:13:25;97401.06;;;4.63;100.00
9439;BME280;5176;42.622;25.386;2024-01-27T10:16:00;97407.78;;;4.69;100.00
9439;BME280;5176;42.622;25.386;2024-01-27T10:18:28;97399.16;;;4.68;100.00
9439;BME280;5176;42.622;25.386;2024-01-27T10:20:56;97364.47;;;4.69;100.00
9439;BME280;5176;42.622;25.386;2024-01-27T10:23:24;97378.56;;;4.85;100.00
9439;BME280;5176;42.622;25.386;2024-01-27T10:25:51;97384.53;;;4.87;100.00
9439;BME280;5176;42.622;25.386;2024-01-27T10:28:20;97394.81;;;4.90;100.00
9439;BME280;5176;42.622;25.386;2024-01-27T10:30:49;97382.16;;;4.81;100.00
9439;BME280;5176;42.622;25.386;2024-01-27T10:33:16;97370.69;;;4.87;100.00
9439;BME280;5176;42.622;25.386;2024-01-27T10:35:44;97369.84;;;4.86;100.00
9439;BME280;5176;42.622;25.386;2024-01-27T10:38:11;97365.38;;;5.12;100.00
9439;BME280;5176;42.622;25.386;2024-01-27T10:40:39;97363.66;;;5.33;100.00
9439;BME280;5176;42.622;25.386;2024-01-27T10:43:08;97392.03;;;5.39;100.00
9439;BME280;5176;42.622;25.386;2024-01-27T10:45:38;97365.50;;;5.31;100.00
9439;BME280;5176;42.622;25.386;2024-01-27T10:48:06;97385.50;;;5.29;100.00
9439;BME280;5176;42.622;25.386;2024-01-27T10:50:36;97385.19;;;5.36;100.00
9439;BME280;5176;42.622;25.386;2024-01-27T10:53:06;97381.03;;;5.32;100.00
9439;BME280;5176;42.622;25.386;2024-01-27T10:55:37;97389.50;;;5.37;100.00
9439;BME280;5176;42.622;25.386;2024-01-27T10:58:05;97372.34;;;5.54;100.00
9439;BME280;5176;42.622;25.386;2024-01-27T11:00:33;97389.59;;;5.77;100.00
9439;BME280;5176;42.622;25.386;2024-01-27T11:03:04;97390.72;;;5.91;98.64
9439;BME280;5176;42.622;25.386;2024-01-27T11:05:35;97363.28;;;6.05;97.13
9439;BME280;5176;42.622;25.386;2024-01-27T11:08:05;97373.16;;;6.17;94.78
9439;BME280;5176;42.622;25.386;2024-01-27T11:10:33;97381.25;;;6.30;93.14
9439;BME280;5176;42.622;25.386;2024-01-27T11:13:04;97377.25;;;6.41;90.73
9439;BME280;5176;42.622;25.386;2024-01-27T11:15:32;97372.75;;;6.45;91.12
9439;BME280;5176;42.622;25.386;2024-01-27T11:18:00;97371.63;;;6.50;93.80
9439;BME280;5176;42.622;25.386;2024-01-27T11:20:32;97389.63;;;6.55;96.87
9439;BME280;5176;42.622;25.386;2024-01-27T11:23:09;97370.22;;;6.43;99.87
9439;BME280;5176;42.622;25.386;2024-01-27T11:25:37;97369.38;;;6.43;99.24
9439;BME280;5176;42.622;25.386;2024-01-27T11:28:11;97380.91;;;6.37;97.36
9439;BME280;5176;42.622;25.386;2024-01-27T11:30:45;97376.00;;;6.50;93.85
9439;BME280;5176;42.622;25.386;2024-01-27T11:33:14;97372.53;;;6.68;90.76
9439;BME280;5176;42.622;25.386;2024-01-27T11:35:43;97367.19;;;6.90;89.30
9439;BME280;5176;42.622;25.386;2024-01-27T11:38:10;97376.59;;;7.12;84.86
9439;BME280;5176;42.622;25.386;2024-01-27T11:40:45;97382.00;;;7.26;84.18
9439;BME280;5176;42.622;25.386;2024-01-27T11:43:13;97374.63;;;7.34;84.72
9439;BME280;5176;42.622;25.386;2024-01-27T11:45:41;97374.50;;;7.37;84.07
9439;BME280;5176;42.622;25.386;2024-01-27T11:48:09;97384.94;;;7.37;83.40
9439;BME280;5176;42.622;25.386;2024-01-27T11:50:36;97384.84;;;7.38;83.32
9439;BME280;5176;42.622;25.386;2024-01-27T11:53:05;97393.53;;;7.39;82.03
9439;BME280;5176;42.622;25.386;2024-01-27T11:55:35;97383.16;;;7.37;84.95
9439;BME280;5176;42.622;25.386;2024-01-27T11:58:04;97388.22;;;7.41;83.52
9439;BME280;5176;42.622;25.386;2024-01-27T12:00:32;97396.69;;;7.46;84.32
9439;BME280;5176;42.622;25.386;2024-01-27T12:02:59;97401.91;;;7.46;85.70
9439;BME280;5176;42.622;25.386;2024-01-27T12:05:27;97397.44;;;7.48;86.49
9439;BME280;5176;42.622;25.386;2024-01-27T12:07:54;97406.94;;;7.49;86.62
9439;BME280;5176;42.622;25.386;2024-01-27T12:10:23;97415.69;;;7.48;86.59
9439;BME280;5176;42.622;25.386;2024-01-27T12:12:51;97402.72;;;7.46;85.68
9439;BME280;5176;42.622;25.386;2024-01-27T12:15:18;97418.84;;;7.37;85.51
9439;BME280;5176;42.622;25.386;2024-01-27T12:17:50;97420.53;;;7.38;86.33
9439;BME280;5176;42.622;25.386;2024-01-27T12:20:18;97430.28;;;7.52;88.13
9439;BME280;5176;42.622;25.386;2024-01-27T12:22:46;97434.38;;;7.57;88.16
9439;BME280;5176;42.622;25.386;2024-01-27T12:25:15;97443.00;;;7.77;89.19
9439;BME280;5176;42.622;25.386;2024-01-27T12:27:44;97454.44;;;7.91;87.30
9439;BME280;5176;42.622;25.386;2024-01-27T12:30:12;97471.84;;;7.91;84.25
9439;BME280;5176;42.622;25.386;2024-01-27T12:32:40;97464.41;;;7.83;85.88
9439;BME280;5176;42.622;25.386;2024-01-27T12:35:08;97473.69;;;7.72;83.96
9439;BME280;5176;42.622;25.386;2024-01-27T12:37:36;97483.84;;;7.59;83.86
9439;BME280;5176;42.622;25.386;2024-01-27T12:40:17;97484.59;;;7.44;85.71
9439;BME280;5176;42.622;25.386;2024-01-27T12:42:46;97496.84;;;7.42;85.96
9439;BME280;5176;42.622;25.386;2024-01-27T12:45:13;97501.72;;;7.30;86.58
9439;BME280;5176;42.622;25.386;2024-01-27T12:47:41;97492.78;;;7.17;86.29
9439;BME280;5176;42.622;25.386;2024-01-27T12:50:09;97496.16;;;7.19;87.57
9439;BME280;5176;42.622;25.386;2024-01-27T12:52:37;97478.19;;;7.13;86.95
9439;BME280;5176;42.622;25.386;2024-01-27T12:55:05;97471.28;;;7.12;87.45
9439;BME280;5176;42.622;25.386;2024-01-27T12:57:32;97470.94;;;7.20;86.59
9439;BME280;5176;42.622;25.386;2024-01-27T13:00:02;97461.81;;;7.28;85.90
9439;BME280;5176;42.622;25.386;2024-01-27T13:02:35;97458.88;;;7.36;84.72
9439;BME280;5176;42.622;25.386;2024-01-27T13:05:03;97448.28;;;7.39;83.92
9439;BME280;5176;42.622;25.386;2024-01-27T13:07:31;97467.25;;;7.43;85.45
9439;BME280;5176;42.622;25.386;2024-01-27T13:09:59;97447.78;;;7.50;82.73
9439;BME280;5176;42.622;25.386;2024-01-27T13:12:27;97450.31;;;7.51;82.34
9439;BME280;5176;42.622;25.386;2024-01-27T13:14:54;97431.06;;;7.54;83.00
9439;BME280;5176;42.622;25.386;2024-01-27T13:17:23;97439.72;;;7.54;83.10
9439;BME280;5176;42.622;25.386;2024-01-27T13:19:51;97431.22;;;7.51;80.70
9439;BME280;5176;42.622;25.386;2024-01-27T13:22:20;97444.88;;;7.56;81.38
9439;BME280;5176;42.622;25.386;2024-01-27T13:24:50;97457.84;;;7.57;83.64